Time;durP1;ratioP1;P1;durP2;ratioP2;P2;SDS_P1;SDS_P2;PMS_P1;PMS_P2;Temp;Humidity;BMP_temperature;BMP_pressure;BME280_temperature;BME280_humidity;BME280_pressure;Samples;Min_cycle;Max_cycle;Signal;HPM_P1;HPM_P2
2023/12/26 00:01:24;;;;;;;;;;;;;;;2.43;95.64;95452.75;5074290;28;1117;-59
2023/12/26 00:03:50;;;;;;;;;;;;;;;2.22;96.13;95456.81;5074229;28;1155;-58
2023/12/26 00:06:19;;;;;;;;;;;;;;;2.27;96.73;95452.09;5074364;28;1060;-58
2023/12/26 00:08:46;;;;;;;;;;;;;;;2.35;96.40;95455.03;5073956;28;1048;-58
2023/12/26 00:11:12;;;;;;;;;;;;;;;2.40;96.02;95455.59;5074073;28;1993;-58
2023/12/26 00:13:38;;;;;;;;;;;;;;;2.21;95.47;95458.63;5073783;28;1099;-58
2023/12/26 00:16:04;;;;;;;;;;;;;;;2.10;96.03;95461.13;5074111;28;1064;-58
2023/12/26 00:18:31;;;;;;;;;;;;;;;2.06;96.77;95465.75;5073852;28;984;-58
2023/12/26 00:20:57;;;;;;;;;;;;;;;2.13;96.32;95480.25;5074423;28;1029;-58
2023/12/26 00:23:23;;;;;;;;;;;;;;;2.14;96.35;95474.03;5074044;28;1077;-58
2023/12/26 00:25:49;;;;;;;;;;;;;;;2.08;96.15;95469.13;5073610;28;1057;-58
2023/12/26 00:28:17;;;;;;;;;;;;;;;2.04;97.15;95472.94;5073861;28;981;-58
2023/12/26 00:30:43;;;;;;;;;;;;;;;1.90;98.55;95475.66;5073482;28;1910;-58
2023/12/26 00:33:09;;;;;;;;;;;;;;;1.94;98.30;95475.31;5073779;28;972;-58
2023/12/26 00:35:35;;;;;;;;;;;;;;;2.00;97.44;95475.88;5073764;28;962;-58
2023/12/26 00:38:01;;;;;;;;;;;;;;;2.03;96.50;95473.03;5055766;28;1037;-58
2023/12/26 00:40:27;;;;;;;;;;;;;;;2.07;96.65;95480.66;5073556;28;1047;-58
2023/12/26 00:42:53;;;;;;;;;;;;;;;2.01;96.84;95485.47;5073746;28;996;-58
2023/12/26 00:45:22;;;;;;;;;;;;;;;2.00;96.83;95473.25;5073379;28;1041;-58
2023/12/26 00:47:48;;;;;;;;;;;;;;;2.05;96.53;95487.81;5073114;28;914;-59
2023/12/26 00:50:16;;;;;;;;;;;;;;;2.09;97.12;95486.66;5073631;28;1891;-58
2023/12/26 00:52:42;;;;;;;;;;;;;;;2.18;96.52;95489.63;5073215;28;1056;-58
2023/12/26 00:55:09;;;;;;;;;;;;;;;2.06;95.93;95489.50;5073190;28;1037;-58
2023/12/26 00:57:35;;;;;;;;;;;;;;;1.98;95.74;95489.16;5073478;28;972;-59
2023/12/26 01:00:04;;;;;;;;;;;;;;;1.84;96.25;95489.19;5073258;28;1104;-58
2023/12/26 01:02:30;;;;;;;;;;;;;;;1.70;96.67;95484.84;5072877;28;1243;-59
2023/12/26 01:04:56;;;;;;;;;;;;;;;1.73;97.68;95489.91;5073463;28;1158;-58
2023/12/26 01:07:22;;;;;;;;;;;;;;;1.79;97.87;95496.59;5073467;28;1049;-58
2023/12/26 01:09:48;;;;;;;;;;;;;;;1.95;97.72;95492.00;5073250;28;1914;-59
2023/12/26 01:12:14;;;;;;;;;;;;;;;2.01;96.67;95499.53;5073337;28;1069;-58
2023/12/26 01:14:40;;;;;;;;;;;;;;;2.01;96.51;95498.66;5073205;28;977;-58
2023/12/26 01:17:07;;;;;;;;;;;;;;;1.93;96.02;95501.78;5073393;28;974;-58
2023/12/26 01:19:33;;;;;;;;;;;;;;;1.82;96.18;95501.66;5073094;28;1024;-58
2023/12/26 01:21:59;;;;;;;;;;;;;;;1.77;96.90;95499.31;5073318;28;975;-58
2023/12/26 01:24:25;;;;;;;;;;;;;;;1.83;97.00;95512.09;5073280;28;1045;-58
2023/12/26 01:26:51;;;;;;;;;;;;;;;1.84;96.82;95505.03;5073136;28;1036;-59
2023/12/26 01:29:17;;;;;;;;;;;;;;;1.78;96.21;95497.53;5073127;28;1041;-58
2023/12/26 01:31:43;;;;;;;;;;;;;;;1.74;96.04;95500.34;5072754;28;1906;-59
2023/12/26 01:34:09;;;;;;;;;;;;;;;1.59;96.24;95498.69;5072866;28;1115;-58
2023/12/26 01:36:35;;;;;;;;;;;;;;;1.69;96.63;95502.44;5072804;28;1033;-58
2023/12/26 01:39:02;;;;;;;;;;;;;;;1.79;96.28;95497.44;5072900;28;1044;-59
2023/12/26 01:41:28;;;;;;;;;;;;;;;1.79;95.75;95496.59;5073102;28;1062;-58
2023/12/26 01:43:54;;;;;;;;;;;;;;;1.54;95.37;95495.53;5072732;28;1020;-58
2023/12/26 01:46:20;;;;;;;;;;;;;;;1.52;96.09;95502.69;5055005;28;1041;-58
2023/12/26 01:48:47;;;;;;;;;;;;;;;1.48;96.24;95496.75;5072767;28;997;-58
2023/12/26 01:51:14;;;;;;;;;;;;;;;1.52;95.95;95495.63;5072708;28;1906;-59
2023/12/26 01:53:40;;;;;;;;;;;;;;;1.49;95.59;95498.44;5072607;28;1131;-58
2023/12/26 01:56:10;;;;;;;;;;;;;;;1.48;95.51;95498.53;5073005;28;970;-58
2023/12/26 01:58:37;;;;;;;;;;;;;;;1.41;95.88;95503.34;5073418;28;1119;-59
2023/12/26 02:01:03;;;;;;;;;;;;;;;1.48;97.27;95499.41;5076752;28;1053;-58
2023/12/26 02:03:30;;;;;;;;;;;;;;;1.51;97.07;95507.09;5058322;28;1170;-58
2023/12/26 02:05:56;;;;;;;;;;;;;;;1.60;96.27;95496.94;5076392;28;1036;-59
2023/12/26 02:08:23;;;;;;;;;;;;;;;1.65;96.67;95492.19;5076549;28;970;-58
2023/12/26 02:10:49;;;;;;;;;;;;;;;1.52;95.92;95505.31;5076157;28;1902;-58
2023/12/26 02:13:15;;;;;;;;;;;;;;;1.52;96.84;95500.88;5058478;28;1036;-58
2023/12/26 02:15:42;;;;;;;;;;;;;;;1.36;95.66;95493.09;5076176;28;1084;-58
2023/12/26 02:18:08;;;;;;;;;;;;;;;1.11;97.05;95495.59;5076174;28;1056;-59
2023/12/26 02:20:34;;;;;;;;;;;;;;;1.23;97.68;95500.06;5058334;28;1301;-58
2023/12/26 02:23:00;;;;;;;;;;;;;;;1.40;97.62;95500.81;5076038;28;1032;-58
2023/12/26 02:25:26;;;;;;;;;;;;;;;1.52;96.97;95489.50;5076306;28;1064;-58
2023/12/26 02:27:52;;;;;;;;;;;;;;;1.55;96.75;95486.66;5076150;28;1027;-58
2023/12/26 02:30:18;;;;;;;;;;;;;;;1.61;95.79;95488.91;5076042;28;1906;-58
2023/12/26 02:32:46;;;;;;;;;;;;;;;1.48;94.73;95488.00;5076079;28;1044;-58
2023/12/26 02:35:12;;;;;;;;;;;;;;;1.23;96.77;95497.44;5075868;28;996;-58
2023/12/26 02:37:38;;;;;;;;;;;;;;;1.17;98.52;95495.19;5075705;28;1035;-59
2023/12/26 02:40:05;;;;;;;;;;;;;;;1.14;98.60;95498.88;5076076;28;1077;-58
2023/12/26 02:42:31;;;;;;;;;;;;;;;1.33;98.15;95503.84;5075910;28;1053;-59
2023/12/26 02:44:57;;;;;;;;;;;;;;;1.47;97.82;95502.13;5075694;28;1041;-58
2023/12/26 02:47:24;;;;;;;;;;;;;;;1.67;96.57;95506.97;5075942;28;1038;-59
2023/12/26 02:49:50;;;;;;;;;;;;;;;1.73;96.27;95496.03;5075713;28;2003;-58
2023/12/26 02:52:17;;;;;;;;;;;;;;;1.54;95.12;95511.34;5075754;28;972;-58
2023/12/26 02:54:43;;;;;;;;;;;;;;;1.44;94.83;95504.94;5075451;28;1868;-59
2023/12/26 02:57:09;;;;;;;;;;;;;;;1.13;96.04;95509.50;5075648;28;1056;-59
2023/12/26 02:59:35;;;;;;;;;;;;;;;1.07;97.74;95513.34;5075292;28;1025;-59
2023/12/26 03:02:01;;;;;;;;;;;;;;;1.21;97.69;95516.91;5075161;28;1077;-59
2023/12/26 03:04:27;;;;;;;;;;;;;;;1.30;97.16;95519.81;5075070;28;1150;-59
2023/12/26 03:06:53;;;;;;;;;;;;;;;1.35;96.21;95509.84;5075199;28;1020;-59
2023/12/26 03:09:19;;;;;;;;;;;;;;;1.41;96.30;95513.06;5074772;28;1024;-59
2023/12/26 03:11:45;;;;;;;;;;;;;;;1.40;95.74;95508.72;5075262;28;1979;-58
2023/12/26 03:14:14;;;;;;;;;;;;;;;1.22;95.85;95510.72;5075425;28;1060;-58
2023/12/26 03:16:40;;;;;;;;;;;;;;;1.35;96.60;95519.56;5074994;28;1103;-58
2023/12/26 03:19:06;;;;;;;;;;;;;;;1.06;96.97;95508.19;5075089;28;1045;-59
2023/12/26 03:21:32;;;;;;;;;;;;;;;1.10;97.98;95512.31;5074794;28;1068;-59
2023/12/26 03:23:58;;;;;;;;;;;;;;;1.32;97.83;95511.84;5075196;28;1045;-58
2023/12/26 03:26:24;;;;;;;;;;;;;;;1.43;96.76;95519.06;5075175;28;977;-59
2023/12/26 03:28:50;;;;;;;;;;;;;;;1.28;96.02;95521.72;5074710;28;918;-58
2023/12/26 03:31:16;;;;;;;;;;;;;;;1.06;95.61;95524.81;5074746;28;1989;-59
2023/12/26 03:33:42;;;;;;;;;;;;;;;0.90;96.21;95521.44;5074551;28;1037;-58
2023/12/26 03:36:08;;;;;;;;;;;;;;;0.95;96.38;95517.59;5074682;28;1119;-58
2023/12/26 03:38:37;;;;;;;;;;;;;;;1.07;96.49;95517.78;5074532;28;1044;-58
2023/12/26 03:41:03;;;;;;;;;;;;;;;1.17;96.59;95521.53;5074513;28;1088;-58
2023/12/26 03:43:29;;;;;;;;;;;;;;;1.19;96.08;95527.56;5074742;28;974;-59
2023/12/26 03:45:55;;;;;;;;;;;;;;;0.94;94.71;95523.78;5074749;28;978;-59
2023/12/26 03:48:21;;;;;;;;;;;;;;;0.72;96.07;95519.00;5074684;28;974;-59
2023/12/26 03:50:47;;;;;;;;;;;;;;;0.61;97.50;95515.28;5074122;28;1993;-58
2023/12/26 03:53:13;;;;;;;;;;;;;;;0.94;97.59;95520.31;5074494;28;982;-59
2023/12/26 03:55:40;;;;;;;;;;;;;;;1.14;97.12;95519.09;5074562;28;988;-59
2023/12/26 03:58:06;;;;;;;;;;;;;;;1.28;96.53;95519.06;5074164;28;1100;-59
2023/12/26 04:00:31;;;;;;;;;;;;;;;1.31;97.04;95525.94;5074383;28;1061;-58
2023/12/26 04:02:57;;;;;;;;;;;;;;;1.10;95.62;95525.47;5073958;28;1194;-58
2023/12/26 04:05:23;;;;;;;;;;;;;;;1.15;95.58;95523.41;5074012;28;1061;-59
2023/12/26 04:07:50;;;;;;;;;;;;;;;0.91;95.13;95525.75;5074248;28;1020;-58
2023/12/26 04:10:15;;;;;;;;;;;;;;;0.72;97.09;95526.88;5074157;28;1906;-57
2023/12/26 04:12:41;;;;;;;;;;;;;;;0.81;97.15;95528.09;5056166;28;1064;-58
2023/12/26 04:15:08;;;;;;;;;;;;;;;0.96;96.79;95526.34;5073945;28;970;-58
2023/12/26 04:17:34;;;;;;;;;;;;;;;1.06;96.27;95527.44;5073733;28;914;-58
2023/12/26 04:20:00;;;;;;;;;;;;;;;1.04;96.27;95528.50;5073776;28;1004;-58
2023/12/26 04:22:26;;;;;;;;;;;;;;;1.03;96.03;95534.72;5073213;28;1051;-57
2023/12/26 04:24:52;;;;;;;;;;;;;;;1.00;96.21;95537.53;5073640;28;1192;-58
2023/12/26 04:27:18;;;;;;;;;;;;;;;0.98;95.57;95533.19;5073813;28;986;-58
2023/12/26 04:29:44;;;;;;;;;;;;;;;0.92;94.97;95541.47;5073438;28;1914;-59
2023/12/26 04:32:10;;;;;;;;;;;;;;;0.78;93.64;95537.03;5073530;28;1048;-59
2023/12/26 04:34:39;;;;;;;;;;;;;;;0.73;94.76;95540.88;5073397;28;1044;-58
2023/12/26 04:37:05;;;;;;;;;;;;;;;0.85;96.32;95541.94;5073737;28;1032;-58
2023/12/26 04:39:31;;;;;;;;;;;;;;;0.97;96.43;95544.69;5073366;28;1107;-58
2023/12/26 04:41:57;;;;;;;;;;;;;;;1.00;96.36;95548.91;5073508;28;1092;-58
2023/12/26 04:44:23;;;;;;;;;;;;;;;1.02;96.29;95546.19;5073511;28;1004;-58
2023/12/26 04:46:53;;;;;;;;;;;;;;;1.00;95.77;95550.69;5073432;28;1065;-59
2023/12/26 04:49:18;;;;;;;;;;;;;;;1.18;94.98;95546.94;5073346;28;1050;-62
2023/12/26 04:51:44;;;;;;;;;;;;;;;0.87;93.46;95554.06;5073346;28;2043;-62
2023/12/26 04:54:10;;;;;;;;;;;;;;;0.63;96.25;95555.56;5073420;28;988;-62
2023/12/26 04:56:39;;;;;;;;;;;;;;;0.80;96.95;95552.75;5078664;28;1146;-60
2023/12/26 04:59:05;;;;;;;;;;;;;;;0.93;96.98;95553.72;5093441;28;1036;-60
2023/12/26 05:01:32;;;;;;;;;;;;;;;0.88;96.02;95555.75;5092233;28;1099;-61
2023/12/26 05:03:58;;;;;;;;;;;;;;;0.80;95.45;95562.41;5083809;28;1189;-60
2023/12/26 05:06:24;;;;;;;;;;;;;;;0.79;95.42;95566.84;5073418;28;1045;-60
2023/12/26 05:08:50;;;;;;;;;;;;;;;0.78;96.89;95565.16;5073157;28;1962;-60
2023/12/26 05:11:24;;;;;;;;;;;;;;;0.81;95.71;95557.06;5073067;28;1910;-60
2023/12/26 05:13:51;;;;;;;;;;;;;;;0.68;95.43;95558.72;5073390;28;970;-59
2023/12/26 05:16:17;;;;;;;;;;;;;;;0.55;94.18;95566.50;5072865;28;1295;-60
2023/12/26 05:18:43;;;;;;;;;;;;;;;0.50;95.91;95556.25;5073349;28;964;-59
2023/12/26 05:21:18;;;;;;;;;;;;;;;0.63;95.49;95559.00;5073236;28;1216;-60
2023/12/26 05:23:44;;;;;;;;;;;;;;;0.70;95.40;95560.34;5073155;28;1022;-60
2023/12/26 05:26:10;;;;;;;;;;;;;;;0.73;96.07;95559.31;5073029;28;978;-60
2023/12/26 05:28:37;;;;;;;;;;;;;;;0.63;96.05;95556.38;5072995;28;978;-60
2023/12/26 05:31:04;;;;;;;;;;;;;;;0.40;93.55;95563.00;5072746;28;1983;-60
2023/12/26 05:33:30;;;;;;;;;;;;;;;0.38;94.79;95562.25;5075235;28;1088;-60
2023/12/26 05:35:56;;;;;;;;;;;;;;;0.40;94.93;95560.38;5077156;28;1000;-59
2023/12/26 05:38:22;;;;;;;;;;;;;;;0.27;95.59;95562.03;5076795;28;1096;-59
2023/12/26 05:40:48;;;;;;;;;;;;;;;0.38;96.19;95573.59;5077166;28;996;-60
2023/12/26 05:43:14;;;;;;;;;;;;;;;0.52;95.84;95569.31;5076714;28;1061;-62
2023/12/26 05:45:40;;;;;;;;;;;;;;;0.57;95.44;95562.84;5076993;28;1047;-61
2023/12/26 05:48:06;;;;;;;;;;;;;;;0.63;95.65;95571.34;5076955;28;969;-59
2023/12/26 05:50:32;;;;;;;;;;;;;;;0.52;93.27;95575.44;5076601;28;1910;-63
2023/12/26 05:52:58;;;;;;;;;;;;;;;0.27;92.09;95575.16;5076968;28;959;-62
2023/12/26 05:55:24;;;;;;;;;;;;;;;0.24;94.94;95567.44;5077026;28;957;-60
2023/12/26 05:57:51;;;;;;;;;;;;;;;0.49;96.46;95564.22;5076582;28;964;-60
2023/12/26 06:00:17;;;;;;;;;;;;;;;0.58;96.55;95569.78;5076330;28;1097;-60
2023/12/26 06:02:43;;;;;;;;;;;;;;;0.74;95.87;95572.38;5076398;28;1090;-59
2023/12/26 06:05:09;;;;;;;;;;;;;;;0.75;95.55;95586.38;5076579;28;1242;-60
2023/12/26 06:07:35;;;;;;;;;;;;;;;0.80;95.66;95584.34;5076569;28;1049;-60
2023/12/26 06:10:01;;;;;;;;;;;;;;;0.81;94.75;95575.50;5058826;28;1980;-59
2023/12/26 06:12:28;;;;;;;;;;;;;;;0.94;94.32;95579.09;5076186;28;1064;-62
2023/12/26 06:14:54;;;;;;;;;;;;;;;0.84;93.71;95574.47;5075871;28;970;-62
2023/12/26 06:17:22;;;;;;;;;;;;;;;0.56;93.29;95579.56;5075857;28;1052;-62
2023/12/26 06:19:48;;;;;;;;;;;;;;;0.45;94.92;95581.97;5076351;28;1044;-62
2023/12/26 06:22:14;;;;;;;;;;;;;;;0.52;95.01;95578.06;5058487;28;1112;-62
2023/12/26 06:24:40;;;;;;;;;;;;;;;0.64;94.73;95573.00;5076364;28;984;-62
2023/12/26 06:27:06;;;;;;;;;;;;;;;0.68;94.94;95574.53;5058219;28;1076;-62
2023/12/26 06:29:32;;;;;;;;;;;;;;;0.74;95.13;95574.16;5076071;28;982;-62
2023/12/26 06:31:58;;;;;;;;;;;;;;;0.78;94.95;95575.69;5076114;28;1987;-62
2023/12/26 06:34:24;;;;;;;;;;;;;;;0.76;95.39;95581.03;5075916;28;1025;-61
2023/12/26 06:36:50;;;;;;;;;;;;;;;1.06;94.99;95585.38;5076138;28;978;-62
2023/12/26 06:39:16;;;;;;;;;;;;;;;2.69;87.75;95584.75;5075670;28;1055;-62
2023/12/26 06:41:43;;;;;;;;;;;;;;;4.71;75.09;95584.63;5075788;28;1045;-62
2023/12/26 06:44:10;;;;;;;;;;;;;;;6.77;67.04;95603.00;5074779;28;1064;-62
2023/12/26 06:46:41;;;;;;;;;;;;;;;8.37;60.88;95607.97;5075953;28;973;-62
2023/12/26 06:49:08;;;;;;;;;;;;;;;9.71;54.99;95616.28;5075862;28;1057;-62
2023/12/26 06:51:38;;;;;;;;;;;;;;;10.24;52.10;95638.88;5075629;28;1986;-62
2023/12/26 06:54:04;;;;;;;;;;;;;;;10.78;49.16;95642.56;5075770;28;1037;-62
2023/12/26 06:56:30;;;;;;;;;;;;;;;11.13;48.52;95644.47;5075387;28;969;-61
2023/12/26 06:58:57;;;;;;;;;;;;;;;11.22;48.06;95649.88;5075382;28;1057;-61
2023/12/26 07:01:24;;;;;;;;;;;;;;;11.25;47.75;95646.88;5075313;28;1101;-63
2023/12/26 07:03:50;;;;;;;;;;;;;;;11.98;45.79;95652.03;5075193;28;1155;-60
2023/12/26 07:06:16;;;;;;;;;;;;;;;12.58;44.71;95659.22;5075302;28;982;-61
2023/12/26 07:08:42;;;;;;;;;;;;;;;12.96;43.10;95659.69;5075189;28;1045;-60
2023/12/26 07:11:08;;;;;;;;;;;;;;;12.81;43.32;95662.16;5075109;28;1909;-61
2023/12/26 07:13:34;;;;;;;;;;;;;;;12.61;43.95;95653.53;5075065;28;1041;-60
2023/12/26 07:16:00;;;;;;;;;;;;;;;13.00;43.87;95655.69;5075086;28;1099;-60
2023/12/26 07:18:26;;;;;;;;;;;;;;;13.04;43.56;95657.03;5075238;28;973;-60
2023/12/26 07:20:52;;;;;;;;;;;;;;;13.00;43.35;95650.31;5074997;28;1119;-61
2023/12/26 07:23:18;;;;;;;;;;;;;;;12.85;43.65;95657.31;5074893;28;1074;-60
2023/12/26 07:25:44;;;;;;;;;;;;;;;11.94;45.53;95650.66;5074882;28;1033;-59
2023/12/26 07:28:14;;;;;;;;;;;;;;;9.95;50.81;95637.16;5074697;28;1044;-59
2023/12/26 07:30:40;;;;;;;;;;;;;;;7.52;59.45;95621.59;5075105;28;1910;-59
2023/12/26 07:33:06;;;;;;;;;;;;;;;6.02;67.10;95609.09;5074926;28;1056;-58
2023/12/26 07:35:35;;;;;;;;;;;;;;;4.72;73.49;95596.91;5074609;28;1088;-58
2023/12/26 07:38:01;;;;;;;;;;;;;;;3.98;78.07;95593.50;5074714;28;1111;-58
2023/12/26 07:40:27;;;;;;;;;;;;;;;3.60;80.30;95597.91;5074633;28;974;-58
2023/12/26 07:42:53;;;;;;;;;;;;;;;3.56;81.83;95612.31;5074723;28;981;-59
2023/12/26 07:45:23;;;;;;;;;;;;;;;3.67;81.96;95620.34;5056965;28;1036;-59
2023/12/26 07:47:49;;;;;;;;;;;;;;;3.76;81.20;95618.03;5074626;28;958;-59
2023/12/26 07:50:15;;;;;;;;;;;;;;;3.77;81.62;95619.69;5074309;28;1906;-59
2023/12/26 07:52:41;;;;;;;;;;;;;;;3.82;82.61;95625.50;5074345;28;1048;-59
2023/12/26 07:55:07;;;;;;;;;;;;;;;3.75;84.44;95616.31;5074451;28;1046;-58
2023/12/26 07:57:33;;;;;;;;;;;;;;;3.67;84.50;95612.41;5074444;28;1000;-58
2023/12/26 07:59:59;;;;;;;;;;;;;;;3.70;84.59;95614.84;5074572;28;988;-59
2023/12/26 08:02:25;;;;;;;;;;;;;;;3.67;85.30;95609.75;5074145;28;1089;-58
2023/12/26 08:04:51;;;;;;;;;;;;;;;3.79;86.56;95608.03;5073983;28;1174;-59
2023/12/26 08:07:17;;;;;;;;;;;;;;;3.99;86.50;95616.38;5074007;28;1108;-58
2023/12/26 08:09:43;;;;;;;;;;;;;;;4.19;85.15;95613.16;5074111;28;1001;-59
2023/12/26 08:12:09;;;;;;;;;;;;;;;4.35;84.72;95614.69;5074022;28;1042;-59
2023/12/26 08:14:35;;;;;;;;;;;;;;;4.44;85.04;95611.34;5056212;28;1049;-59
2023/12/26 08:17:02;;;;;;;;;;;;;;;4.53;84.21;95615.97;5056225;28;1048;-59
2023/12/26 08:19:29;;;;;;;;;;;;;;;4.63;82.47;95613.47;5074229;28;961;-59
2023/12/26 08:21:55;;;;;;;;;;;;;;;4.80;81.82;95614.88;5074109;28;970;-59
2023/12/26 08:24:21;;;;;;;;;;;;;;;4.89;81.34;95622.16;5073749;28;1720;-59
2023/12/26 08:26:53;;;;;;;;;;;;;;;4.95;81.77;95610.25;5073995;28;999;-59
2023/12/26 08:29:20;;;;;;;;;;;;;;;5.08;80.84;95606.56;5073926;28;1077;-59
2023/12/26 08:31:46;;;;;;;;;;;;;;;5.14;82.33;95610.56;5073893;28;1997;-59
2023/12/26 08:34:13;;;;;;;;;;;;;;;5.01;84.11;95604.50;5073588;28;1029;-58
2023/12/26 08:36:39;;;;;;;;;;;;;;;4.93;84.39;95607.69;5073902;28;1045;-59
2023/12/26 08:39:05;;;;;;;;;;;;;;;4.91;86.06;95609.63;5073594;28;982;-59
2023/12/26 08:41:31;;;;;;;;;;;;;;;4.78;87.42;95606.19;5073350;28;950;-60
2023/12/26 08:43:57;;;;;;;;;;;;;;;4.64;87.60;95602.78;5073764;28;1005;-60
2023/12/26 08:46:23;;;;;;;;;;;;;;;4.77;86.73;95597.41;5073537;28;956;-59
2023/12/26 08:48:49;;;;;;;;;;;;;;;4.85;86.95;95597.69;5073746;28;974;-59
2023/12/26 08:51:15;;;;;;;;;;;;;;;5.06;87.02;95597.03;5073222;28;1910;-59
2023/12/26 08:53:41;;;;;;;;;;;;;;;5.13;86.38;95590.31;5073622;28;985;-60
2023/12/26 08:56:07;;;;;;;;;;;;;;;5.51;84.58;95596.28;5073600;28;974;-59
2023/12/26 08:58:33;;;;;;;;;;;;;;;5.93;82.82;95599.16;5073510;28;1040;-60
2023/12/26 09:01:00;;;;;;;;;;;;;;;6.21;80.88;95589.88;5073432;28;1017;-60
2023/12/26 09:03:27;;;;;;;;;;;;;;;6.08;80.82;95591.84;5072810;28;1174;-60
2023/12/26 09:05:53;;;;;;;;;;;;;;;6.26;80.51;95587.72;5073478;28;1012;-60
2023/12/26 09:08:19;;;;;;;;;;;;;;;6.64;79.10;95589.06;5072628;28;985;-59
2023/12/26 09:10:45;;;;;;;;;;;;;;;6.85;75.35;95578.47;5072999;28;1901;-59
2023/12/26 09:14:50;;;;;;;;;;;;;;;7.16;74.54;95578.53;5107452;27;1342484;-58
2023/12/26 09:17:16;;;;;;;;;;;;;;;7.58;72.09;95578.50;5131834;28;1007;-59
2023/12/26 09:19:42;;;;;;;;;;;;;;;7.72;72.01;95569.31;5131566;28;1033;-59
2023/12/26 09:22:08;;;;;;;;;;;;;;;7.69;72.31;95573.09;5131700;28;1036;-58
2023/12/26 09:24:34;;;;;;;;;;;;;;;8.04;70.33;95571.81;5131353;28;1060;-59
2023/12/26 09:27:00;;;;;;;;;;;;;;;8.12;70.09;95568.47;5131544;28;1299;-59
2023/12/26 09:29:26;;;;;;;;;;;;;;;7.96;69.01;95563.66;5131256;28;1096;-59
2023/12/26 09:31:53;;;;;;;;;;;;;;;8.35;68.14;95558.47;5131596;28;1045;-59
2023/12/26 09:34:19;;;;;;;;;;;;;;;8.50;69.15;95549.13;5131381;28;2047;-59
2023/12/26 09:36:45;;;;;;;;;;;;;;;8.49;69.72;95539.41;5113098;28;1037;-59
2023/12/26 09:39:11;;;;;;;;;;;;;;;8.57;69.77;95544.06;5131072;28;1107;-60
2023/12/26 09:41:37;;;;;;;;;;;;;;;8.89;68.24;95534.94;5131252;28;1110;-60
2023/12/26 09:44:03;;;;;;;;;;;;;;;9.04;66.71;95536.19;5131069;28;1055;-60
2023/12/26 09:46:30;;;;;;;;;;;;;;;9.31;67.31;95526.59;5131153;28;973;-58
2023/12/26 09:48:56;;;;;;;;;;;;;;;9.67;65.90;95534.78;5131267;28;1052;-58
2023/12/26 09:51:22;;;;;;;;;;;;;;;9.69;64.00;95530.13;5131027;28;974;-58
2023/12/26 09:53:56;;;;;;;;;;;;;;;9.84;64.36;95528.66;5130316;28;3909;-58
2023/12/26 09:56:23;;;;;;;;;;;;;;;10.17;63.03;95529.09;5130820;28;1040;-58
2023/12/26 09:58:50;;;;;;;;;;;;;;;10.09;62.28;95518.28;5130765;28;1070;-58
2023/12/26 10:01:17;;;;;;;;;;;;;;;10.50;61.76;95518.78;5131035;28;1023;-57
2023/12/26 10:03:45;;;;;;;;;;;;;;;10.84;60.27;95518.09;5130834;28;1166;-58
2023/12/26 10:06:11;;;;;;;;;;;;;;;10.84;58.52;95510.91;5113701;27;1185;-57
2023/12/26 10:08:37;;;;;;;;;;;;;;;10.74;58.51;95515.50;5140049;27;1220;-57
2023/12/26 10:11:03;;;;;;;;;;;;;;;10.74;58.83;95502.97;5123487;27;1307;-57
2023/12/26 10:13:45;;;;;;;;;;;;;;;10.80;59.62;95503.34;5139858;27;1901;-58
2023/12/26 10:16:11;;;;;;;;;;;;;;;10.88;57.56;95514.09;5137710;27;3986;-57
2023/12/26 10:18:38;;;;;;;;;;;;;;;11.14;58.25;95504.28;5139999;27;1243;-57
2023/12/26 10:21:04;;;;;;;;;;;;;;;11.34;57.19;95496.03;5141312;27;1316;-57
2023/12/26 10:23:30;;;;;;;;;;;;;;;11.33;56.37;95475.66;5121601;27;1287;-57
2023/12/26 10:25:56;;;;;;;;;;;;;;;11.61;56.61;95491.53;5127741;27;1319;-57
2023/12/26 10:28:22;;;;;;;;;;;;;;;11.69;56.42;95486.22;5123388;27;4367;-57
2023/12/26 10:30:48;;;;;;;;;;;;;;;11.60;55.04;95479.97;5108927;27;1363;-57
2023/12/26 10:33:23;;;;;;;;;;;;;;;11.59;54.98;95480.13;5126264;27;1905;-57
2023/12/26 10:36:05;;;;;;;;;;;;;;;11.86;54.17;95479.94;5105208;27;1312;-57
2023/12/26 10:38:31;;;;;;;;;;;;;;;11.42;55.30;95472.03;5123657;27;1287;-57
2023/12/26 10:40:58;;;;;;;;;;;;;;;11.88;56.32;95461.84;5125852;27;1280;-57
2023/12/26 10:43:26;;;;;;;;;;;;;;;12.29;56.25;95453.13;5127328;27;1276;-57
2023/12/26 10:45:56;;;;;;;;;;;;;;;12.42;54.91;95458.84;5126349;27;1224;-56
2023/12/26 10:48:24;;;;;;;;;;;;;;;12.47;55.76;95464.56;5128061;27;1280;-57
2023/12/26 10:50:51;;;;;;;;;;;;;;;12.32;54.85;95460.84;5130864;27;3790;-58
2023/12/26 10:53:21;;;;;;;;;;;;;;;12.20;56.38;95454.97;5108709;27;4010;-57
2023/12/26 10:55:48;;;;;;;;;;;;;;;12.28;54.49;95454.97;5130286;27;1880;-57
2023/12/26 10:58:23;;;;;;;;;;;;;;;12.26;55.09;95453.47;5125393;27;4335;-56
2023/12/26 13:52:39;;;;;;;;;;;;;;;11.59;64.48;95303.38;5113327;28;1163;-58
2023/12/26 13:55:24;;;;;;;;;;;;;;;11.67;66.22;95306.09;5113317;28;1096;-57
2023/12/26 13:58:09;;;;;;;;;;;;;;;11.66;66.35;95293.69;5113540;28;1019;-58
2023/12/26 14:00:54;;;;;;;;;;;;;;;11.72;64.82;95298.38;5115364;28;1045;-58
2023/12/26 14:03:39;;;;;;;;;;;;;;;11.79;65.05;95296.72;5116815;28;1150;-57
2023/12/26 14:06:25;;;;;;;;;;;;;;;11.77;67.59;95295.22;5117192;28;1033;-57
2023/12/26 14:09:10;;;;;;;;;;;;;;;11.58;69.53;95291.00;5117039;28;1202;-58
2023/12/26 14:11:55;;;;;;;;;;;;;;;11.24;71.01;95292.72;5116868;28;1028;-57
2023/12/26 14:14:40;;;;;;;;;;;;;;;11.05;70.67;95295.69;5116790;28;1906;-57
2023/12/26 14:17:06;;;;;;;;;;;;;;;10.84;70.83;95296.91;5116896;28;1024;-58
2023/12/26 14:19:32;;;;;;;;;;;;;;;10.74;71.15;95305.03;5116795;28;1056;-58
2023/12/26 14:21:58;;;;;;;;;;;;;;;10.69;70.36;95296.66;5098752;28;1025;-57
2023/12/26 14:24:24;;;;;;;;;;;;;;;10.67;71.24;95287.13;5116541;28;1015;-57
2023/12/26 14:26:50;;;;;;;;;;;;;;;10.54;72.53;95296.38;5116654;28;1029;-58
2023/12/26 14:29:16;;;;;;;;;;;;;;;10.45;71.56;95288.47;5098415;28;1048;-57
2023/12/26 14:31:42;;;;;;;;;;;;;;;10.23;71.84;95290.66;5116855;28;1035;-58
2023/12/26 14:34:08;;;;;;;;;;;;;;;10.21;72.58;95278.44;5116439;28;1901;-57
2023/12/26 14:36:34;;;;;;;;;;;;;;;10.08;72.28;95282.34;5116429;28;1200;-57
2023/12/26 14:39:02;;;;;;;;;;;;;;;9.84;71.90;95290.97;5116406;28;996;-58
2023/12/26 14:41:28;;;;;;;;;;;;;;;9.71;74.20;95277.16;5116223;28;1048;-57
2023/12/26 14:43:55;;;;;;;;;;;;;;;9.62;74.61;95280.75;5116454;28;1044;-57
2023/12/26 14:46:22;;;;;;;;;;;;;;;9.53;73.81;95278.00;5116447;28;1068;-58
2023/12/26 14:48:48;;;;;;;;;;;;;;;9.48;73.45;95277.63;5116218;28;1029;-57
2023/12/26 14:51:15;;;;;;;;;;;;;;;9.42;73.17;95280.06;5115987;28;1033;-58
2023/12/26 14:53:41;;;;;;;;;;;;;;;9.14;74.51;95280.09;5115950;28;1917;-58
2023/12/26 14:56:07;;;;;;;;;;;;;;;9.05;74.76;95280.97;5115846;28;1281;-58
2023/12/26 14:58:33;;;;;;;;;;;;;;;8.98;74.32;95286.91;5115670;28;1068;-58
2023/12/26 15:01:00;;;;;;;;;;;;;;;8.94;74.25;95288.19;5116078;28;1063;-57
2023/12/26 15:03:27;;;;;;;;;;;;;;;8.85;74.52;95286.41;5115591;28;1183;-58
2023/12/26 15:05:53;;;;;;;;;;;;;;;8.61;74.68;95284.25;5115744;28;1207;-57
2023/12/26 15:08:19;;;;;;;;;;;;;;;8.26;75.70;95291.06;5116015;28;1095;-59
2023/12/26 15:10:46;;;;;;;;;;;;;;;8.33;75.31;95286.84;5116013;28;996;-57
2023/12/26 15:13:12;;;;;;;;;;;;;;;7.99;76.32;95286.47;5116007;28;1906;-58
2023/12/26 15:15:38;;;;;;;;;;;;;;;7.84;78.53;95288.72;5115384;28;1226;-58
2023/12/26 15:18:06;;;;;;;;;;;;;;;7.88;77.85;95275.97;5115575;28;1104;-59
2023/12/26 15:20:33;;;;;;;;;;;;;;;7.81;76.72;95284.50;5115542;28;1000;-59
2023/12/26 15:22:59;;;;;;;;;;;;;;;7.83;75.63;95284.38;5115588;28;1056;-58
2023/12/26 15:25:25;;;;;;;;;;;;;;;7.65;76.01;95286.09;5097310;28;1041;-58
2023/12/26 15:27:51;;;;;;;;;;;;;;;7.36;76.92;95286.88;5115723;28;1024;-59
2023/12/26 15:30:17;;;;;;;;;;;;;;;7.24;77.26;95294.13;5115358;28;1111;-59
2023/12/26 15:32:47;;;;;;;;;;;;;;;6.91;78.18;95304.13;5125265;27;1905;-58
2023/12/26 15:35:13;;;;;;;;;;;;;;;6.91;78.14;95300.66;5123979;27;1085;-59
2023/12/26 15:37:39;;;;;;;;;;;;;;;7.08;77.25;95291.19;5125847;27;1216;-58
2023/12/26 15:40:06;;;;;;;;;;;;;;;7.14;77.29;95299.44;5107506;27;1260;-59
2023/12/26 15:42:32;;;;;;;;;;;;;;;7.04;77.13;95287.97;5124212;27;1291;-58
2023/12/26 15:44:58;;;;;;;;;;;;;;;7.19;76.34;95285.72;5126154;27;1228;-59
2023/12/26 15:47:24;;;;;;;;;;;;;;;7.15;75.97;95285.19;5125154;27;1275;-58
2023/12/26 15:49:50;;;;;;;;;;;;;;;6.89;76.72;95286.66;5124294;27;1288;-58
2023/12/26 15:52:16;;;;;;;;;;;;;;;6.80;78.34;95293.59;5125966;27;1328;-58
2023/12/26 15:54:42;;;;;;;;;;;;;;;6.52;78.34;95289.84;5124364;27;1909;-57
2023/12/26 15:57:08;;;;;;;;;;;;;;;6.49;78.64;95290.09;5124380;27;1240;-58
2023/12/26 15:59:34;;;;;;;;;;;;;;;6.59;79.01;95293.66;5126182;27;1233;-58